Time;durP1;ratioP1;P1;durP2;ratioP2;P2;SDS_P1;SDS_P2;PMS_P1;PMS_P2;Temp;Humidity;BMP_temperature;BMP_pressure;BME280_temperature;BME280_humidity;BME280_pressure;Samples;Min_cycle;Max_cycle;Signal;HPM_P1;HPM_P2
2022/01/05 00:01:24;;;;;;;11.50;5.40;;;5.40;99.90;;;;;;5031342;28;20037;-82
2022/01/05 00:03:50;;;;;;;8.93;5.38;;;5.40;99.90;;;;;;4997026;28;20040;-83
2022/01/05 00:06:16;;;;;;;9.48;5.03;;;5.30;99.90;;;;;;5031737;28;20366;-82
2022/01/05 00:08:42;;;;;;;7.53;4.90;;;5.30;99.90;;;;;;5016265;28;20029;-82
2022/01/05 00:11:08;;;;;;;9.05;5.53;;;5.30;99.90;;;;;;5016093;28;20447;-81
2022/01/05 00:13:34;;;;;;;7.32;4.80;;;5.20;99.90;;;;;;5016131;28;20387;-82
2022/01/05 00:15:59;;;;;;;7.85;4.55;;;5.20;99.90;;;;;;5033594;28;20025;-81
2022/01/05 00:18:25;;;;;;;8.63;4.90;;;5.10;99.90;;;;;;5033698;28;20026;-82
2022/01/05 00:20:50;;;;;;;10.20;5.18;;;5.10;99.90;;;;;;5016181;28;20026;-82
2022/01/05 00:23:16;;;;;;;10.32;5.60;;;5.10;99.90;;;;;;5016260;28;20064;-82
2022/01/05 00:25:42;;;;;;;7.25;5.07;;;5.00;99.90;;;;;;5016135;28;20383;-82
2022/01/05 00:28:07;;;;;;;9.95;5.40;;;4.90;99.90;;;;;;5035703;28;20028;-82
2022/01/05 00:30:33;;;;;;;9.02;5.07;;;4.90;99.90;;;;;;5017250;28;20033;-82
2022/01/05 00:32:59;;;;;;;10.52;5.85;;;4.90;99.90;;;;;;5016296;28;20048;-82
2022/01/05 00:35:25;;;;;;;9.30;5.38;;;4.80;99.90;;;;;;5033993;28;20026;-82
2022/01/05 00:37:50;;;;;;;9.45;5.40;;;4.80;99.90;;;;;;5015879;28;20112;-82
2022/01/05 00:40:16;;;;;;;11.50;5.93;;;4.70;99.90;;;;;;5015870;28;20022;-82
2022/01/05 00:42:42;;;;;;;10.00;6.10;;;4.60;99.90;;;;;;5033579;28;20025;-82
2022/01/05 00:45:08;;;;;;;11.27;5.75;;;4.60;99.90;;;;;;5015043;28;20037;-82
2022/01/05 00:47:34;;;;;;;9.13;5.47;;;4.50;99.90;;;;;;5016011;28;20061;-82
2022/01/05 00:49:59;;;;;;;11.00;6.15;;;4.50;99.90;;;;;;5016013;28;20056;-82
2022/01/05 00:52:25;;;;;;;9.02;6.05;;;4.40;99.90;;;;;;5033533;28;20117;-82
2022/01/05 00:54:51;;;;;;;10.40;6.20;;;4.40;99.90;;;;;;5033283;28;20469;-84
2022/01/05 00:57:17;;;;;;;11.73;6.88;;;4.40;99.90;;;;;;5035191;28;20028;-83
2022/01/05 00:59:43;;;;;;;10.38;6.43;;;4.40;99.90;;;;;;5018903;28;20455;-82
2022/01/05 01:02:08;;;;;;;11.55;6.30;;;4.40;99.90;;;;;;5037250;28;20029;-82
2022/01/05 01:04:34;;;;;;;10.05;6.05;;;4.30;99.90;;;;;;5037172;28;20030;-82
2022/01/05 01:07:00;;;;;;;10.77;6.05;;;4.30;99.90;;;;;;5036939;28;20109;-82
2022/01/05 01:09:26;;;;;;;11.27;5.97;;;4.30;99.90;;;;;;5019197;28;20025;-82
2022/01/05 01:11:52;;;;;;;11.68;6.30;;;4.30;99.90;;;;;;5018968;28;20101;-82
2022/01/05 01:14:18;;;;;;;11.07;6.60;;;4.30;99.90;;;;;;5036656;28;20037;-82
2022/01/05 01:16:43;;;;;;;14.13;6.72;;;4.30;99.90;;;;;;5019055;28;20112;-83
2022/01/05 01:19:09;;;;;;;10.85;6.07;;;4.30;99.90;;;;;;5037148;28;20156;-82
2022/01/05 01:21:35;;;;;;;13.18;6.75;;;4.30;99.90;;;;;;5019141;28;20451;-82
2022/01/05 01:24:01;;;;;;;12.60;6.50;;;4.30;99.90;;;;;;5036574;28;20037;-82
2022/01/05 01:26:29;;;;;;;11.80;6.68;;;4.30;99.90;;;;;;5019631;28;20025;-82
2022/01/05 01:28:56;;;;;;;14.13;7.43;;;4.30;99.90;;;;;;5039084;28;20080;-81
2022/01/05 01:31:22;;;;;;;11.77;6.75;;;4.30;99.90;;;;;;5021106;28;20034;-82
2022/01/05 01:33:48;;;;;;;11.95;7.00;;;4.30;99.90;;;;;;5018672;28;20360;-82
2022/01/05 01:36:14;;;;;;;12.35;6.55;;;4.30;99.90;;;;;;5036375;28;20080;-82
2022/01/05 01:38:41;;;;;;;11.43;5.88;;;4.30;99.90;;;;;;5036477;28;20025;-82
2022/01/05 01:41:07;;;;;;;11.27;5.95;;;4.30;99.90;;;;;;5036341;28;20017;-83
2022/01/05 01:43:32;;;;;;;11.68;6.35;;;4.30;99.90;;;;;;5018904;28;20057;-83
2022/01/05 01:45:59;;;;;;;13.52;6.40;;;4.30;99.90;;;;;;5018607;28;20124;-83
2022/01/05 01:48:24;;;;;;;14.50;7.50;;;4.20;99.90;;;;;;5018711;28;20065;-84
2022/01/05 01:50:50;;;;;;;16.00;8.02;;;4.20;99.90;;;;;;5018448;28;20048;-83
2022/01/05 01:53:16;;;;;;;15.20;8.63;;;4.20;99.90;;;;;;5036271;28;20056;-83
2022/01/05 01:55:42;;;;;;;15.13;9.35;;;4.30;99.90;;;;;;5035855;28;20033;-83
2022/01/05 01:58:08;;;;;;;14.55;8.18;;;4.30;99.90;;;;;;5036272;28;20034;-81
2022/01/05 02:00:34;;;;;;;14.00;7.93;;;4.30;99.90;;;;;;5018115;28;20483;-81
2022/01/05 02:02:59;;;;;;;14.02;8.15;;;4.30;99.90;;;;;;5018207;28;20035;-81
2022/01/05 02:05:25;;;;;;;15.30;8.45;;;4.30;99.90;;;;;;5036194;28;20376;-81
2022/01/05 02:07:51;;;;;;;14.23;8.20;;;4.40;99.90;;;;;;5035768;28;20025;-82
2022/01/05 02:10:17;;;;;;;12.68;7.32;;;4.40;99.90;;;;;;5035753;28;20571;-81
2022/01/05 02:12:43;;;;;;;11.73;6.80;;;4.40;99.90;;;;;;5035468;28;20084;-80
2022/01/05 02:15:10;;;;;;;12.45;6.95;;;4.40;99.90;;;;;;5017916;28;20116;-81
2022/01/05 02:17:50;;;;;;;12.70;7.57;;;4.50;99.90;;;;;;5035856;28;20041;-82
2022/01/05 02:20:20;;;;;;;12.13;7.05;;;4.50;99.90;;;;;;5035503;28;20028;-82
2022/01/05 02:22:47;;;;;;;13.15;7.20;;;4.50;99.90;;;;;;5017623;28;20068;-81
2022/01/05 02:25:13;;;;;;;13.23;7.40;;;4.50;99.90;;;;;;5037368;28;20037;-81
2022/01/05 02:27:40;;;;;;;13.25;7.00;;;4.50;99.90;;;;;;5017861;28;20037;-82
2022/01/05 02:30:09;;;;;;;12.35;7.13;;;4.50;99.90;;;;;;5017987;28;20440;-81
2022/01/05 02:32:35;;;;;;;13.73;6.80;;;4.60;99.90;;;;;;5017522;28;20053;-81
2022/01/05 02:35:01;;;;;;;11.85;7.25;;;4.60;99.90;;;;;;5035500;28;20083;-82
2022/01/05 02:37:26;;;;;;;13.02;7.18;;;4.60;99.90;;;;;;5035212;28;20072;-82
2022/01/05 02:39:52;;;;;;;15.20;7.28;;;4.60;99.90;;;;;;5017505;28;20030;-81
2022/01/05 02:42:27;;;;;;;14.95;8.63;;;4.60;99.90;;;;;;5017255;28;20026;-82
2022/01/05 02:44:55;;;;;;;23.88;12.77;;;4.60;99.90;;;;;;5017120;28;20507;-82
2022/01/05 02:47:20;;;;;;;22.77;12.15;;;4.60;99.90;;;;;;5035539;28;20025;-82
2022/01/05 02:49:46;;;;;;;15.52;9.57;;;4.60;99.90;;;;;;5017360;28;20036;-82
2022/01/05 02:52:13;;;;;;;14.35;7.80;;;4.60;99.90;;;;;;5017007;28;20112;-81
2022/01/05 02:54:38;;;;;;;12.75;7.25;;;4.60;99.90;;;;;;5034907;28;20033;-80
2022/01/05 02:57:04;;;;;;;12.88;6.65;;;4.60;99.90;;;;;;5017733;28;20083;-81
2022/01/05 02:59:30;;;;;;;13.13;7.00;;;4.60;99.90;;;;;;5034639;28;20427;-81
2022/01/05 03:01:56;;;;;;;10.98;7.15;;;4.70;99.90;;;;;;5016997;28;20044;-82
2022/01/05 03:04:23;;;;;;;11.18;6.82;;;4.70;99.90;;;;;;5017008;28;20032;-82
2022/01/05 03:06:49;;;;;;;15.60;7.97;;;4.60;99.90;;;;;;5034940;28;20079;-81
2022/01/05 03:09:14;;;;;;;14.13;7.30;;;4.70;99.90;;;;;;5034818;28;20025;-81
2022/01/05 03:11:40;;;;;;;15.52;7.43;;;4.70;99.90;;;;;;5016906;28;20467;-81
2022/01/05 03:14:06;;;;;;;13.73;7.07;;;4.70;99.90;;;;;;5016849;28;20041;-81
2022/01/05 03:16:31;;;;;;;11.05;6.97;;;4.70;99.90;;;;;;5016837;28;20021;-81
2022/01/05 03:18:57;;;;;;;10.35;6.43;;;4.70;99.90;;;;;;5034146;28;20048;-81
2022/01/05 03:21:22;;;;;;;11.05;6.65;;;4.60;99.90;;;;;;5034273;28;20468;-80
2022/01/05 03:23:48;;;;;;;11.10;6.25;;;4.60;99.90;;;;;;5018430;28;20060;-80
2022/01/05 03:26:14;;;;;;;12.07;6.85;;;4.50;99.90;;;;;;5036453;28;20415;-81
2022/01/05 03:28:39;;;;;;;10.77;6.35;;;4.60;99.90;;;;;;5016531;28;20032;-81
2022/01/05 03:31:05;;;;;;;10.85;6.55;;;4.50;99.90;;;;;;5034302;28;20026;-82
2022/01/05 03:33:31;;;;;;;11.52;6.07;;;4.50;99.90;;;;;;5016338;28;20049;-83
2022/01/05 03:35:57;;;;;;;17.33;6.95;;;4.50;99.90;;;;;;5016068;28;20034;-81
2022/01/05 03:38:23;;;;;;;13.15;7.05;;;4.50;99.90;;;;;;5016915;28;20068;-80
2022/01/05 03:40:50;;;;;;;9.48;5.72;;;4.50;99.90;;;;;;5034466;28;20057;-82
2022/01/05 03:43:16;;;;;;;13.43;6.43;;;4.40;99.90;;;;;;5016495;28;20084;-81
2022/01/05 03:45:43;;;;;;;10.30;6.07;;;4.40;99.90;;;;;;5034227;28;20078;-80
2022/01/05 03:48:12;;;;;;;9.20;6.03;;;4.30;99.90;;;;;;5016403;28;20026;-80
2022/01/05 03:50:39;;;;;;;13.45;6.35;;;4.30;99.90;;;;;;5016603;28;20032;-81
2022/01/05 03:53:06;;;;;;;13.35;6.47;;;4.40;99.90;;;;;;5016849;28;20120;-80
2022/01/05 03:55:33;;;;;;;14.05;6.82;;;4.30;99.90;;;;;;5034241;28;20018;-81
2022/01/05 03:58:00;;;;;;;12.63;6.13;;;4.30;99.90;;;;;;5016359;28;20028;-81
2022/01/05 04:00:28;;;;;;;10.38;6.15;;;4.30;99.90;;;;;;5015984;28;20099;-81
2022/01/05 04:02:54;;;;;;;11.23;6.65;;;4.30;99.90;;;;;;5033894;28;20017;-81
2022/01/05 04:05:19;;;;;;;12.73;6.70;;;4.30;99.90;;;;;;5015934;28;20033;-80
2022/01/05 04:07:45;;;;;;;13.70;7.43;;;4.30;99.90;;;;;;5033807;28;20029;-81
2022/01/05 04:10:11;;;;;;;14.25;7.10;;;4.30;99.90;;;;;;5033822;28;20049;-80
2022/01/05 04:12:36;;;;;;;14.18;7.07;;;4.30;99.90;;;;;;5016337;28;20056;-80
2022/01/05 04:15:03;;;;;;;13.63;6.70;;;4.30;99.90;;;;;;5033841;28;20468;-81
2022/01/05 04:17:29;;;;;;;12.25;7.03;;;4.30;99.90;;;;;;5007039;28;20028;-81
2022/01/05 04:19:55;;;;;;;11.52;6.90;;;4.30;99.90;;;;;;5024323;28;20041;-79
2022/01/05 04:22:21;;;;;;;14.88;7.15;;;4.30;99.90;;;;;;5018234;28;20053;-80
2022/01/05 04:24:47;;;;;;;13.05;6.90;;;4.40;99.90;;;;;;5018342;28;20029;-81
2022/01/05 04:27:12;;;;;;;11.98;6.78;;;4.40;99.90;;;;;;5033849;28;20034;-81
2022/01/05 04:29:38;;;;;;;10.02;6.15;;;4.40;99.90;;;;;;5015523;28;20060;-80
2022/01/05 04:32:04;;;;;;;10.20;5.53;;;4.40;99.90;;;;;;5016203;28;20036;-81
2022/01/05 04:34:30;;;;;;;11.90;6.00;;;4.30;99.90;;;;;;5037762;28;20037;-81
2022/01/05 04:36:55;;;;;;;12.55;6.40;;;4.30;99.90;;;;;;5037555;28;20072;-81
2022/01/05 04:39:21;;;;;;;10.13;5.28;;;4.30;99.90;;;;;;5019605;28;20052;-80
2022/01/05 04:41:46;;;;;;;10.63;5.88;;;4.30;99.90;;;;;;5019979;28;20093;-81
2022/01/05 04:44:12;;;;;;;10.35;6.00;;;4.40;99.90;;;;;;5019676;28;20120;-81
2022/01/05 04:46:38;;;;;;;10.80;6.43;;;4.40;99.90;;;;;;5036756;28;20045;-82
2022/01/05 04:49:04;;;;;;;11.23;6.45;;;4.40;99.90;;;;;;5037306;28;20070;-81
2022/01/05 04:51:30;;;;;;;10.43;5.90;;;4.40;99.90;;;;;;5019359;28;20037;-80
2022/01/05 04:53:56;;;;;;;9.45;6.22;;;4.40;99.90;;;;;;5037073;28;20415;-80
2022/01/05 04:56:21;;;;;;;13.20;7.00;;;4.50;99.90;;;;;;5037392;28;20036;-80
2022/01/05 04:58:47;;;;;;;10.27;5.88;;;4.50;99.90;;;;;;5036864;28;20037;-82
2022/01/05 05:01:13;;;;;;;10.13;6.80;;;4.60;99.90;;;;;;5036714;28;20033;-82
2022/01/05 05:03:39;;;;;;;11.85;7.43;;;4.60;99.90;;;;;;5019811;28;20070;-79
2022/01/05 05:06:05;;;;;;;12.93;7.63;;;4.60;99.90;;;;;;5036579;28;20104;-80
2022/01/05 05:08:30;;;;;;;11.93;6.95;;;4.60;99.90;;;;;;5037033;28;20033;-80
2022/01/05 05:10:56;;;;;;;11.73;7.50;;;4.60;99.90;;;;;;5037039;28;20100;-80
2022/01/05 05:13:22;;;;;;;12.05;7.20;;;4.60;99.90;;;;;;5018785;28;20042;-81
2022/01/05 05:15:47;;;;;;;12.93;8.25;;;4.70;99.90;;;;;;5036976;28;20032;-81
2022/01/05 05:18:13;;;;;;;12.18;7.72;;;4.70;99.90;;;;;;5019382;28;20096;-81
2022/01/05 05:20:40;;;;;;;15.40;7.72;;;4.70;99.90;;;;;;5023715;28;20029;-81
2022/01/05 05:23:06;;;;;;;14.20;8.23;;;4.70;99.90;;;;;;5039205;28;20134;-81
2022/01/05 05:25:32;;;;;;;13.32;7.95;;;4.80;99.90;;;;;;5018582;28;20032;-80
2022/01/05 05:27:58;;;;;;;18.48;8.68;;;4.80;99.90;;;;;;5018953;28;20116;-81
2022/01/05 05:30:24;;;;;;;14.40;7.82;;;4.80;99.90;;;;;;5035949;28;20049;-81
2022/01/05 05:32:50;;;;;;;13.70;7.20;;;4.80;99.90;;;;;;5035739;28;20045;-80
2022/01/05 05:35:16;;;;;;;14.73;7.70;;;4.80;99.90;;;;;;5036358;28;20089;-81
2022/01/05 05:37:42;;;;;;;11.00;6.32;;;4.80;99.90;;;;;;5018846;28;20022;-81
2022/01/05 05:40:08;;;;;;;14.30;8.00;;;4.80;99.90;;;;;;5035969;28;20137;-81
2022/01/05 05:42:34;;;;;;;12.38;7.38;;;4.80;99.90;;;;;;5035547;28;20026;-81
2022/01/05 05:44:59;;;;;;;11.93;7.13;;;4.70;99.90;;;;;;5018748;28;20088;-81
2022/01/05 05:47:25;;;;;;;14.40;7.45;;;4.70;99.90;;;;;;5036601;28;20372;-82
2022/01/05 05:49:51;;;;;;;13.73;7.25;;;4.60;99.90;;;;;;5036150;28;20029;-81
2022/01/05 05:52:17;;;;;;;13.75;7.10;;;4.60;99.90;;;;;;5018154;28;20076;-81
2022/01/05 05:54:42;;;;;;;10.82;6.90;;;4.60;99.90;;;;;;5035779;28;20029;-81
2022/01/05 05:57:08;;;;;;;11.27;7.20;;;4.60;99.90;;;;;;5018043;28;20026;-81
2022/01/05 05:59:34;;;;;;;12.10;6.93;;;4.60;99.90;;;;;;5017863;28;20117;-81
2022/01/05 06:02:00;;;;;;;16.50;8.35;;;4.60;99.90;;;;;;5018701;28;20031;-81
2022/01/05 06:04:26;;;;;;;13.13;7.78;;;4.60;99.90;;;;;;5018222;28;20542;-81
2022/01/05 06:06:52;;;;;;;14.15;7.32;;;4.60;99.90;;;;;;5018113;28;20029;-81
2022/01/05 06:09:17;;;;;;;15.30;8.07;;;4.70;99.90;;;;;;5036364;28;20033;-81
2022/01/05 06:11:43;;;;;;;15.75;8.75;;;4.70;99.90;;;;;;5019908;28;20120;-80
2022/01/05 06:14:09;;;;;;;21.08;10.45;;;4.70;99.90;;;;;;5035707;28;20030;-83
2022/01/05 06:16:35;;;;;;;16.90;10.10;;;4.70;99.90;;;;;;5037250;28;20051;-81
2022/01/05 06:19:00;;;;;;;16.98;9.93;;;4.80;99.90;;;;;;5020331;28;20056;-80
2022/01/05 06:21:26;;;;;;;16.85;9.70;;;4.80;99.90;;;;;;5019523;28;20483;-82
2022/01/05 06:23:51;;;;;;;16.73;9.43;;;4.90;99.90;;;;;;5018062;28;20030;-81
2022/01/05 06:26:21;;;;;;;20.27;10.57;;;4.90;99.90;;;;;;5018139;28;20029;-81
2022/01/05 06:28:47;;;;;;;19.33;9.65;;;5.00;99.90;;;;;;5035465;28;20113;-81
2022/01/05 06:31:13;;;;;;;17.80;9.48;;;5.00;99.90;;;;;;5036654;28;20064;-82
2022/01/05 06:33:38;;;;;;;18.85;10.18;;;5.10;99.90;;;;;;5035441;28;20077;-81
2022/01/05 06:36:04;;;;;;;14.77;8.98;;;5.20;99.90;;;;;;5035143;28;20033;-81
2022/01/05 06:38:30;;;;;;;15.50;9.57;;;5.20;99.90;;;;;;5017316;28;20060;-82
2022/01/05 06:40:56;;;;;;;16.58;9.88;;;5.30;99.90;;;;;;5034857;28;20040;-81
2022/01/05 06:43:21;;;;;;;16.80;9.88;;;5.40;99.90;;;;;;5034813;28;20033;-81
2022/01/05 06:45:47;;;;;;;17.52;9.65;;;5.50;99.90;;;;;;5016913;28;20030;-81
2022/01/05 06:48:12;;;;;;;15.48;9.68;;;5.50;99.90;;;;;;5018047;28;20097;-81
2022/01/05 06:50:38;;;;;;;16.20;9.45;;;5.60;99.90;;;;;;5034757;28;20357;-82
2022/01/05 06:53:04;;;;;;;14.00;8.70;;;5.60;99.90;;;;;;5016905;28;20051;-82
2022/01/05 06:55:29;;;;;;;12.73;8.55;;;5.70;99.90;;;;;;5034666;28;20029;-81
2022/01/05 06:57:55;;;;;;;13.93;8.63;;;5.70;99.90;;;;;;5016886;28;20413;-82
2022/01/05 07:00:22;;;;;;;14.15;8.63;;;5.80;99.90;;;;;;5016944;28;20128;-82
2022/01/05 07:02:48;;;;;;;14.70;8.80;;;5.90;99.90;;;;;;5017012;28;20061;-82
2022/01/05 07:05:14;;;;;;;15.38;8.70;;;5.90;99.90;;;;;;5034002;28;20064;-81
2022/01/05 07:07:39;;;;;;;13.32;8.85;;;6.00;99.90;;;;;;5034631;28;20029;-82
2022/01/05 07:10:07;;;;;;;13.55;8.48;;;6.00;99.90;;;;;;5034207;28;20025;-82
2022/01/05 07:12:34;;;;;;;13.20;7.88;;;6.00;99.90;;;;;;5034247;28;20021;-81
2022/01/05 07:15:00;;;;;;;14.50;8.15;;;6.10;99.90;;;;;;5018951;28;20064;-81
2022/01/05 07:17:26;;;;;;;12.50;8.43;;;6.20;99.90;;;;;;5019528;28;20037;-82
2022/01/05 07:19:51;;;;;;;16.17;9.35;;;6.20;99.90;;;;;;5016830;28;20025;-82
2022/01/05 07:22:17;;;;;;;17.05;9.13;;;6.30;99.90;;;;;;5034334;28;20075;-83
2022/01/05 07:24:43;;;;;;;17.33;9.07;;;6.30;99.90;;;;;;5033746;28;20026;-81
2022/01/05 07:27:08;;;;;;;15.27;8.70;;;6.30;99.90;;;;;;5015784;28;20025;-82
2022/01/05 07:29:34;;;;;;;17.08;9.73;;;6.40;99.90;;;;;;5016196;28;20053;-80
2022/01/05 07:32:00;;;;;;;15.07;9.15;;;6.50;99.90;;;;;;5016203;28;20037;-81
2022/01/05 07:34:26;;;;;;;19.35;9.52;;;6.60;99.90;;;;;;5033940;28;20041;-83
2022/01/05 07:36:51;;;;;;;16.98;10.10;;;6.60;99.90;;;;;;5016112;28;20029;-81
2022/01/05 07:39:17;;;;;;;21.20;10.95;;;6.80;99.90;;;;;;5015830;28;20489;-82
2022/01/05 07:41:43;;;;;;;56.42;29.98;;;6.80;99.90;;;;;;5033674;28;20029;-82
2022/01/05 07:44:09;;;;;;;33.90;18.17;;;6.90;99.90;;;;;;5033781;28;20032;-81
2022/01/05 07:46:35;;;;;;;24.42;12.60;;;7.30;99.90;;;;;;5016128;28;20121;-81
2022/01/05 07:49:02;;;;;;;25.60;10.25;;;7.70;99.90;;;;;;5015680;28;20084;-83
2022/01/05 07:51:29;;;;;;;16.02;9.40;;;8.00;99.90;;;;;;5033423;28;20025;-81
2022/01/05 07:53:55;;;;;;;13.43;8.55;;;8.40;99.90;;;;;;5033286;28;20049;-83
2022/01/05 07:56:21;;;;;;;14.00;8.18;;;8.60;99.90;;;;;;5014496;28;20112;-81
2022/01/05 07:58:48;;;;;;;13.20;7.50;;;8.70;99.90;;;;;;5032417;28;20112;-82
2022/01/05 08:01:17;;;;;;;12.25;7.30;;;8.60;99.90;;;;;;5015543;28;20087;-82
2022/01/05 08:03:42;;;;;;;13.55;7.47;;;8.50;99.90;;;;;;5031354;28;20468;-83
2022/01/05 08:06:08;;;;;;;13.82;8.10;;;8.50;99.90;;;;;;5036133;28;20036;-81
2022/01/05 08:08:33;;;;;;;13.88;8.15;;;8.40;99.90;;;;;;5020041;28;20124;-83
2022/01/05 08:10:59;;;;;;;15.00;9.75;;;8.50;99.90;;;;;;5039481;28;20080;-82
2022/01/05 08:13:27;;;;;;;14.40;8.75;;;8.50;99.90;;;;;;5040290;28;20365;-80
2022/01/05 08:15:54;;;;;;;15.18;9.02;;;8.50;99.90;;;;;;5021693;28;20029;-80
2022/01/05 08:18:20;;;;;;;13.80;7.80;;;8.40;99.90;;;;;;5019566;28;20025;-81
2022/01/05 08:20:46;;;;;;;14.65;7.68;;;8.30;99.90;;;;;;5019710;28;20033;-81
2022/01/05 08:23:20;;;;;;;13.05;7.53;;;8.20;99.90;;;;;;5019145;28;20029;-81
2022/01/05 08:25:46;;;;;;;12.20;7.53;;;8.20;99.90;;;;;;5017720;28;20021;-82
2022/01/05 08:28:12;;;;;;;14.48;7.85;;;8.10;99.90;;;;;;5018571;28;20068;-80
2022/01/05 08:30:39;;;;;;;12.60;7.45;;;8.10;99.90;;;;;;5019329;28;20080;-84
2022/01/05 08:33:06;;;;;;;12.45;7.43;;;8.10;99.90;;;;;;5035647;28;20423;-81
2022/01/05 08:35:32;;;;;;;12.75;7.53;;;8.20;99.90;;;;;;5034193;28;20037;-82
2022/01/05 08:38:01;;;;;;;12.25;7.47;;;8.20;99.90;;;;;;5034125;28;20025;-85
2022/01/05 08:40:27;;;;;;;12.95;7.57;;;8.20;99.90;;;;;;5034620;28;20029;-82
2022/01/05 08:42:54;;;;;;;13.00;7.53;;;8.30;99.90;;;;;;5017643;28;20033;-82
2022/01/05 08:45:21;;;;;;;13.32;7.72;;;8.30;99.90;;;;;;5035921;28;20533;-81
2022/01/05 08:47:51;;;;;;;12.75;7.65;;;8.40;99.90;;;;;;5017757;28;20025;-83
2022/01/05 08:50:19;;;;;;;14.90;7.97;;;8.40;99.90;;;;;;5019367;28;20464;-81
2022/01/05 08:52:45;;;;;;;11.90;6.78;;;8.40;99.90;;;;;;5018914;28;20051;-81
2022/01/05 08:55:12;;;;;;;12.57;7.53;;;8.50;99.90;;;;;;5036675;28;20030;-81
2022/01/05 08:57:40;;;;;;;11.32;6.85;;;8.60;99.90;;;;;;5036948;28;20464;-81
2022/01/05 09:00:06;;;;;;;13.02;7.03;;;8.60;99.90;;;;;;5036730;28;20053;-81
2022/01/05 09:02:32;;;;;;;10.70;6.68;;;8.60;99.90;;;;;;5037228;28;20036;-81
2022/01/05 09:04:58;;;;;;;11.13;6.85;;;8.70;99.90;;;;;;5036956;28;20041;-82
2022/01/05 09:07:24;;;;;;;12.20;7.38;;;8.70;99.90;;;;;;5020269;28;20061;-81
2022/01/05 09:09:49;;;;;;;11.00;7.03;;;8.70;99.90;;;;;;5037259;28;20018;-81
2022/01/05 09:12:15;;;;;;;13.30;7.22;;;8.70;99.90;;;;;;5019109;28;20026;-81
2022/01/05 09:14:41;;;;;;;13.43;6.97;;;8.70;99.90;;;;;;5036380;28;20029;-81
2022/01/05 09:17:07;;;;;;;11.88;7.20;;;8.60;99.90;;;;;;5035903;28;20116;-82
2022/01/05 09:19:33;;;;;;;10.60;6.50;;;8.70;99.90;;;;;;5018243;28;20029;-82
2022/01/05 09:22:00;;;;;;;12.30;6.60;;;8.70;99.90;;;;;;5036270;28;20029;-82
2022/01/05 09:24:25;;;;;;;11.32;6.78;;;8.70;99.90;;;;;;5018776;28;20030;-81
2022/01/05 09:26:57;;;;;;;9.43;5.88;;;8.80;99.90;;;;;;5036586;28;20349;-82
2022/01/05 09:29:49;;;;;;;11.55;5.68;;;8.90;99.90;;;;;;5035690;28;20420;-82
2022/01/05 09:32:18;;;;;;;11.90;6.88;;;9.10;99.90;;;;;;5014553;28;20108;-82
2022/01/05 09:34:44;;;;;;;18.90;10.07;;;9.20;99.90;;;;;;5018649;28;20037;-81
2022/01/05 09:37:20;;;;;;;19.65;10.90;;;9.30;99.90;;;;;;5018256;28;20036;-82
2022/01/05 09:42:31;;;;;;;15.48;9.25;;;9.40;98.90;;;;;;5036502;28;20055;-81
2022/01/05 09:44:58;;;;;;;13.73;8.20;;;9.40;99.40;;;;;;5018149;28;20036;-81
2022/01/05 09:47:45;;;;;;;13.95;7.60;;;9.50;99.00;;;;;;5018027;28;20048;-82
2022/01/05 09:50:18;;;;;;;13.52;7.95;;;9.50;98.90;;;;;;5035823;28;20034;-82
2022/01/05 09:52:46;;;;;;;13.50;8.13;;;9.60;97.50;;;;;;5017345;28;20471;-81
2022/01/05 09:55:14;;;;;;;12.65;7.75;;;9.70;96.90;;;;;;5035155;28;20037;-81
2022/01/05 09:57:43;;;;;;;13.38;7.80;;;9.70;97.00;;;;;;5035382;28;20041;-81
2022/01/05 10:00:12;;;;;;;14.07;7.88;;;9.70;96.20;;;;;;5018645;28;20022;-81
2022/01/05 10:02:39;;;;;;;12.82;7.18;;;9.70;96.40;;;;;;5038287;28;20520;-80
2022/01/05 10:05:08;;;;;;;14.18;8.30;;;9.70;97.20;;;;;;5021340;28;20037;-80
2022/01/05 10:07:35;;;;;;;12.45;8.63;;;9.70;96.20;;;;;;5017456;28;20514;-81
2022/01/05 10:10:01;;;;;;;13.38;8.38;;;9.70;95.20;;;;;;5018093;28;20028;-81
2022/01/05 10:12:26;;;;;;;14.13;8.40;;;9.80;95.60;;;;;;5018278;28;20376;-81
2022/01/05 10:14:52;;;;;;;12.77;7.10;;;9.90;96.20;;;;;;5017330;28;20021;-82
2022/01/05 10:17:26;;;;;;;13.65;8.05;;;10.10;94.80;;;;;;5017900;28;20515;-82
2022/01/05 10:20:01;;;;;;;13.60;7.05;;;10.40;96.10;;;;;;5035345;28;20029;-82
2022/01/05 10:22:32;;;;;;;11.60;7.10;;;11.00;93.30;;;;;;5017391;28;20467;-82
2022/01/05 10:24:59;;;;;;;11.23;6.72;;;11.60;91.20;;;;;;5035053;28;20044;-82
2022/01/05 10:27:26;;;;;;;13.05;7.28;;;12.10;87.40;;;;;;5017058;28;20063;-82
2022/01/05 10:30:00;;;;;;;10.65;7.10;;;12.50;86.50;;;;;;5035499;28;20091;-83
2022/01/05 10:32:32;;;;;;;11.80;6.20;;;13.00;84.10;;;;;;5035039;28;20045;-82
2022/01/05 10:34:59;;;;;;;9.80;5.97;;;13.20;81.30;;;;;;5017066;28;20131;-81
2022/01/05 10:37:25;;;;;;;7.72;4.88;;;13.00;79.20;;;;;;5034944;28;20029;-82
2022/01/05 10:40:05;;;;;;;9.15;5.07;;;12.70;79.90;;;;;;5017327;28;20033;-82
2022/01/05 10:42:32;;;;;;;7.90;4.85;;;12.50;80.30;;;;;;5034217;28;20460;-81
2022/01/05 10:44:59;;;;;;;8.65;5.10;;;12.20;81.80;;;;;;5034909;28;20040;-80
2022/01/05 10:47:25;;;;;;;9.95;5.65;;;12.30;85.00;;;;;;5016634;28;20025;-82
2022/01/05 10:49:51;;;;;;;8.70;5.30;;;12.50;85.20;;;;;;5034402;28;20115;-82
2022/01/05 10:52:32;;;;;;;8.63;5.63;;;12.90;82.70;;;;;;5016579;28;20056;-82
2022/01/05 10:55:14;;;;;;;10.68;6.47;;;13.10;80.40;;;;;;5034801;28;20057;-81
2022/01/05 10:58:02;;;;;;;10.48;6.47;;;13.20;75.80;;;;;;5017735;28;20064;-82
2022/01/05 11:00:39;;;;;;;12.48;6.35;;;12.70;76.60;;;;;;5018070;28;20140;-81
2022/01/05 11:03:25;;;;;;;10.98;5.68;;;12.30;78.50;;;;;;5034419;28;20025;-81
2022/01/05 11:06:04;;;;;;;10.00;5.88;;;12.00;80.00;;;;;;5034028;28;20034;-82
2022/01/05 11:08:31;;;;;;;10.55;6.00;;;11.70;81.40;;;;;;5016867;28;20475;-81
2022/01/05 11:10:57;;;;;;;11.48;6.05;;;11.50;82.20;;;;;;5016736;28;20025;-82
2022/01/05 11:13:23;;;;;;;9.75;5.70;;;11.30;83.00;;;;;;5016262;28;20033;-81
2022/01/05 11:15:59;;;;;;;9.45;5.43;;;11.10;83.70;;;;;;5016591;28;20034;-82
2022/01/05 11:18:30;;;;;;;8.77;4.75;;;10.80;84.90;;;;;;5016158;28;20030;-82
2022/01/05 11:21:02;;;;;;;9.75;4.70;;;10.60;86.20;;;;;;5034172;28;20025;-82
2022/01/05 11:23:30;;;;;;;7.35;4.88;;;10.50;87.40;;;;;;5016511;28;20036;-82
2022/01/05 11:25:57;;;;;;;7.07;4.03;;;10.40;88.30;;;;;;5034125;28;20022;-83
2022/01/05 11:28:24;;;;;;;6.30;3.92;;;10.30;89.10;;;;;;5015970;28;20030;-81
2022/01/05 11:30:53;;;;;;;8.75;5.00;;;10.20;90.00;;;;;;5016514;28;20076;-81
2022/01/05 11:33:19;;;;;;;9.27;5.40;;;10.20;90.20;;;;;;5033726;28;20042;-81
2022/01/05 11:35:46;;;;;;;9.57;5.90;;;10.20;90.30;;;;;;5016034;28;20398;-82
2022/01/05 11:38:12;;;;;;;8.73;4.80;;;10.10;90.40;;;;;;5033633;28;20072;-82
2022/01/05 11:40:51;;;;;;;9.45;5.00;;;10.00;90.80;;;;;;5016150;28;20416;-82
2022/01/05 11:43:30;;;;;;;10.02;5.70;;;9.90;91.20;;;;;;5017018;28;20524;-83
2022/01/05 11:45:57;;;;;;;10.00;6.05;;;9.90;91.60;;;;;;5017867;28;20124;-82
2022/01/05 11:48:27;;;;;;;9.93;5.80;;;9.80;91.70;;;;;;5017768;28;20030;-80
2022/01/05 11:50:59;;;;;;;9.05;5.72;;;9.80;92.10;;;;;;5018157;28;20025;-81
2022/01/05 11:53:43;;;;;;;12.20;6.32;;;9.70;92.40;;;;;;5035562;28;20029;-82
2022/01/05 11:56:11;;;;;;;10.15;6.10;;;9.60;92.50;;;;;;5013518;28;20033;-80
2022/01/05 11:58:50;;;;;;;10.98;6.40;;;9.60;92.90;;;;;;5028858;28;20080;-83
2022/01/05 12:01:21;;;;;;;10.13;6.13;;;9.60;93.50;;;;;;5015367;28;20022;-84
2022/01/05 12:03:59;;;;;;;9.45;5.70;;;9.50;93.50;;;;;;5015401;28;20061;-83
2022/01/05 12:06:26;;;;;;;12.07;6.88;;;9.50;93.80;;;;;;5015719;28;20032;-83
2022/01/05 12:08:57;;;;;;;11.50;6.70;;;9.50;94.00;;;;;;5015439;28;20028;-84
2022/01/05 12:11:38;;;;;;;9.88;6.10;;;9.50;94.20;;;;;;5033583;28;20388;-86
2022/01/05 12:14:24;;;;;;;10.25;6.18;;;9.50;94.30;;;;;;5032186;28;20029;-85
2022/01/05 12:17:01;;;;;;;12.00;7.22;;;9.50;94.30;;;;;;5016132;28;20128;-82
2022/01/05 12:19:48;;;;;;;12.77;6.85;;;9.50;94.40;;;;;;5014329;28;20030;-83
2022/01/05 12:22:27;;;;;;;12.82;7.30;;;9.40;94.50;;;;;;5015349;28;20025;-84
2022/01/05 12:24:53;;;;;;;12.57;7.43;;;9.40;94.30;;;;;;5014755;28;20059;-84
2022/01/05 12:27:24;;;;;;;11.57;7.03;;;9.40;94.50;;;;;;5015015;28;20084;-82
2022/01/05 12:29:51;;;;;;;8.82;6.20;;;9.30;94.80;;;;;;5032790;28;20029;-82
2022/01/05 12:32:38;;;;;;;9.90;6.45;;;9.30;94.90;;;;;;5010823;28;20046;-82
2022/01/05 12:35:17;;;;;;;9.93;6.15;;;9.20;95.00;;;;;;4995203;28;20048;-82
2022/01/05 12:37:54;;;;;;;11.82;6.00;;;9.20;95.20;;;;;;4994976;28;20060;-83
2022/01/05 12:40:27;;;;;;;10.70;6.20;;;9.10;95.40;;;;;;4995772;28;20021;-82
2022/01/05 12:43:16;;;;;;;10.80;6.53;;;9.10;96.10;;;;;;4995419;28;20494;-86
2022/01/05 12:45:52;;;;;;;11.65;6.82;;;9.00;96.10;;;;;;4999433;28;20117;-81
2022/01/05 12:48:35;;;;;;;11.30;7.13;;;9.00;96.60;;;;;;4997661;28;20085;-82
2022/01/05 12:51:39;;;;;;;11.05;7.18;;;9.00;96.90;;;;;;4994678;28;20030;-82